sensor_id;sensor_type;location;lat;lon;timestamp;pressure;altitude;pressure_sealevel;temperature;humidity
57606;BME280;43430;48.204;11.556;2023-02-28T00:01:09;96461.53;;;-3.31;100.00
57606;BME280;43430;48.204;11.556;2023-02-28T00:03:35;96459.69;;;-3.29;100.00
57606;BME280;43430;48.204;11.556;2023-02-28T00:06:04;96458.97;;;-3.31;100.00
57606;BME280;43430;48.204;11.556;2023-02-28T00:08:30;96447.13;;;-3.34;100.00
57606;BME280;43430;48.204;11.556;2023-02-28T00:10:55;96451.47;;;-3.35;100.00
57606;BME280;43430;48.204;11.556;2023-02-28T00:13:20;96452.19;;;-3.32;100.00
57606;BME280;43430;48.204;11.556;2023-02-28T00:15:46;96450.22;;;-3.40;100.00
57606;BME280;43430;48.204;11.556;2023-02-28T00:18:11;96455.88;;;-3.46;100.00
57606;BME280;43430;48.204;11.556;2023-02-28T00:20:37;96447.91;;;-3.54;100.00
57606;BME280;43430;48.204;11.556;2023-02-28T00:23:02;96454.09;;;-3.46;100.00
57606;BME280;43430;48.204;11.556;2023-02-28T00:25:28;96451.53;;;-3.46;100.00
57606;BME280;43430;48.204;11.556;2023-02-28T00:27:53;96451.19;;;-3.52;100.00
57606;BME280;43430;48.204;11.556;2023-02-28T00:30:21;96445.72;;;-3.59;100.00
57606;BME280;43430;48.204;11.556;2023-02-28T00:32:47;96440.13;;;-3.64;100.00
57606;BME280;43430;48.204;11.556;2023-02-28T00:35:13;96440.56;;;-3.59;100.00
57606;BME280;43430;48.204;11.556;2023-02-28T00:37:39;96444.41;;;-3.53;100.00
57606;BME280;43430;48.204;11.556;2023-02-28T00:40:05;96441.69;;;-3.52;100.00
57606;BME280;43430;48.204;11.556;2023-02-28T00:42:31;96439.38;;;-3.55;100.00
57606;BME280;43430;48.204;11.556;2023-02-28T00:44:57;96442.00;;;-3.66;100.00
57606;BME280;43430;48.204;11.556;2023-02-28T00:47:22;96444.13;;;-3.71;100.00
57606;BME280;43430;48.204;11.556;2023-02-28T00:49:48;96442.81;;;-3.66;100.00
57606;BME280;43430;48.204;11.556;2023-02-28T00:52:13;96441.41;;;-3.70;100.00
57606;BME280;43430;48.204;11.556;2023-02-28T00:54:38;96444.72;;;-3.68;100.00
57606;BME280;43430;48.204;11.556;2023-02-28T00:57:04;96446.56;;;-3.70;100.00
57606;BME280;43430;48.204;11.556;2023-02-28T00:59:29;96447.97;;;-3.66;100.00
57606;BME280;43430;48.204;11.556;2023-02-28T01:01:54;96449.38;;;-3.73;100.00
57606;BME280;43430;48.204;11.556;2023-02-28T01:04:20;96449.38;;;-3.73;100.00
57606;BME280;43430;48.204;11.556;2023-02-28T01:06:45;96448.72;;;-3.75;100.00
57606;BME280;43430;48.204;11.556;2023-02-28T01:09:11;96450.00;;;-3.80;100.00
57606;BME280;43430;48.204;11.556;2023-02-28T01:11:37;96454.69;;;-3.86;100.00
57606;BME280;43430;48.204;11.556;2023-02-28T01:14:03;96442.03;;;-3.77;100.00
57606;BME280;43430;48.204;11.556;2023-02-28T01:16:29;96441.31;;;-3.79;100.00
57606;BME280;43430;48.204;11.556;2023-02-28T01:18:55;96437.56;;;-3.75;100.00
57606;BME280;43430;48.204;11.556;2023-02-28T01:21:21;96444.84;;;-3.80;100.00
57606;BME280;43430;48.204;11.556;2023-02-28T01:23:47;96433.97;;;-3.84;100.00
57606;BME280;43430;48.204;11.556;2023-02-28T01:26:14;96433.63;;;-3.91;100.00
57606;BME280;43430;48.204;11.556;2023-02-28T01:28:40;96423.53;;;-3.83;100.00
57606;BME280;43430;48.204;11.556;2023-02-28T01:31:06;96432.00;;;-3.92;100.00
57606;BME280;43430;48.204;11.556;2023-02-28T01:33:33;96428.72;;;-3.94;100.00
57606;BME280;43430;48.204;11.556;2023-02-28T01:36:00;96430.16;;;-4.01;100.00
57606;BME280;43430;48.204;11.556;2023-02-28T01:38:26;96429.09;;;-4.10;100.00
57606;BME280;43430;48.204;11.556;2023-02-28T01:40:51;96422.06;;;-4.08;100.00
57606;BME280;43430;48.204;11.556;2023-02-28T01:43:22;96419.88;;;-4.12;100.00
57606;BME280;43430;48.204;11.556;2023-02-28T01:45:48;96423.25;;;-4.12;100.00
57606;BME280;43430;48.204;11.556;2023-02-28T01:48:14;96422.91;;;-4.07;100.00
57606;BME280;43430;48.204;11.556;2023-02-28T01:50:44;96426.50;;;-4.10;100.00
57606;BME280;43430;48.204;11.556;2023-02-28T01:53:16;96433.91;;;-4.05;100.00
57606;BME280;43430;48.204;11.556;2023-02-28T01:55:45;96429.56;;;-4.04;100.00
57606;BME280;43430;48.204;11.556;2023-02-28T01:58:12;96427.69;;;-4.14;100.00
57606;BME280;43430;48.204;11.556;2023-02-28T02:00:37;96424.44;;;-4.16;100.00
57606;BME280;43430;48.204;11.556;2023-02-28T02:03:09;96415.78;;;-4.15;100.00
57606;BME280;43430;48.204;11.556;2023-02-28T02:05:36;96418.13;;;-4.23;100.00
57606;BME280;43430;48.204;11.556;2023-02-28T02:08:04;96414.63;;;-4.22;100.00
57606;BME280;43430;48.204;11.556;2023-02-28T02:27:09;96425.16;;;-4.25;100.00
57606;BME280;43430;48.204;11.556;2023-02-28T02:45:35;96403.06;;;-4.50;100.00
57606;BME280;43430;48.204;11.556;2023-02-28T02:48:06;96404.47;;;-4.46;100.00
57606;BME280;43430;48.204;11.556;2023-02-28T02:50:37;96406.66;;;-4.41;100.00
57606;BME280;43430;48.204;11.556;2023-02-28T02:53:04;96402.94;;;-4.48;100.00
57606;BME280;43430;48.204;11.556;2023-02-28T02:55:34;96406.00;;;-4.43;100.00
57606;BME280;43430;48.204;11.556;2023-02-28T02:58:04;96407.03;;;-4.46;100.00
57606;BME280;43430;48.204;11.556;2023-02-28T03:00:45;96400.59;;;-4.51;100.00
57606;BME280;43430;48.204;11.556;2023-02-28T03:03:13;96405.53;;;-4.60;100.00
57606;BME280;43430;48.204;11.556;2023-02-28T03:05:47;96402.38;;;-4.63;100.00
57606;BME280;43430;48.204;11.556;2023-02-28T03:08:13;96404.00;;;-4.62;100.00
57606;BME280;43430;48.204;11.556;2023-02-28T03:10:42;96405.88;;;-4.64;100.00
57606;BME280;43430;48.204;11.556;2023-02-28T03:18:47;96404.22;;;-4.77;100.00
57606;BME280;43430;48.204;11.556;2023-02-28T03:24:08;96416.88;;;-4.73;100.00
57606;BME280;43430;48.204;11.556;2023-02-28T03:26:42;96416.50;;;-4.69;100.00
57606;BME280;43430;48.204;11.556;2023-02-28T03:31:52;96418.16;;;-4.68;100.00
57606;BME280;43430;48.204;11.556;2023-02-28T03:34:24;96415.47;;;-4.66;100.00
57606;BME280;43430;48.204;11.556;2023-02-28T03:36:55;96426.81;;;-4.69;100.00
57606;BME280;43430;48.204;11.556;2023-02-28T03:39:34;96422.00;;;-4.62;100.00
57606;BME280;43430;48.204;11.556;2023-02-28T03:42:05;96417.13;;;-4.54;100.00
57606;BME280;43430;48.204;11.556;2023-02-28T03:44:35;96422.94;;;-4.52;100.00
57606;BME280;43430;48.204;11.556;2023-02-28T03:47:11;96425.66;;;-4.54;100.00
57606;BME280;43430;48.204;11.556;2023-02-28T03:49:49;96426.47;;;-4.53;100.00
57606;BME280;43430;48.204;11.556;2023-02-28T03:52:18;96428.81;;;-4.50;100.00
57606;BME280;43430;48.204;11.556;2023-02-28T03:54:50;96425.88;;;-4.57;100.00
57606;BME280;43430;48.204;11.556;2023-02-28T03:57:43;96423.31;;;-4.57;100.00
57606;BME280;43430;48.204;11.556;2023-02-28T04:00:16;96424.00;;;-4.55;100.00
57606;BME280;43430;48.204;11.556;2023-02-28T04:02:44;96429.72;;;-4.51;100.00
57606;BME280;43430;48.204;11.556;2023-02-28T04:05:09;96433.59;;;-4.45;100.00
57606;BME280;43430;48.204;11.556;2023-02-28T04:07:36;96438.28;;;-4.50;100.00
57606;BME280;43430;48.204;11.556;2023-02-28T04:10:02;96435.72;;;-4.50;100.00
57606;BME280;43430;48.204;11.556;2023-02-28T04:12:28;96432.78;;;-4.46;100.00
57606;BME280;43430;48.204;11.556;2023-02-28T04:14:53;96438.88;;;-4.47;100.00
57606;BME280;43430;48.204;11.556;2023-02-28T04:17:18;96435.69;;;-4.39;100.00
57606;BME280;43430;48.204;11.556;2023-02-28T04:19:44;96429.84;;;-4.30;100.00
57606;BME280;43430;48.204;11.556;2023-02-28T04:22:09;96448.91;;;-4.33;100.00
57606;BME280;43430;48.204;11.556;2023-02-28T04:24:35;96447.97;;;-4.32;100.00
57606;BME280;43430;48.204;11.556;2023-02-28T04:27:01;96445.28;;;-4.19;100.00
57606;BME280;43430;48.204;11.556;2023-02-28T04:29:31;96441.63;;;-4.05;100.00
57606;BME280;43430;48.204;11.556;2023-02-28T04:31:58;96450.53;;;-4.09;100.00
57606;BME280;43430;48.204;11.556;2023-02-28T04:34:28;96455.78;;;-4.11;100.00
57606;BME280;43430;48.204;11.556;2023-02-28T04:36:54;96452.63;;;-4.03;100.00
57606;BME280;43430;48.204;11.556;2023-02-28T04:39:21;96452.94;;;-3.96;100.00
57606;BME280;43430;48.204;11.556;2023-02-28T04:41:47;96457.75;;;-3.92;100.00
57606;BME280;43430;48.204;11.556;2023-02-28T04:44:13;96456.34;;;-3.96;100.00
57606;BME280;43430;48.204;11.556;2023-02-28T04:46:39;96452.94;;;-3.96;100.00
57606;BME280;43430;48.204;11.556;2023-02-28T04:49:05;96454.47;;;-3.94;100.00
57606;BME280;43430;48.204;11.556;2023-02-28T04:51:30;96449.81;;;-3.89;100.00
57606;BME280;43430;48.204;11.556;2023-02-28T04:53:56;96451.53;;;-3.89;100.00
57606;BME280;43430;48.204;11.556;2023-02-28T04:56:22;96446.97;;;-3.86;100.00
57606;BME280;43430;48.204;11.556;2023-02-28T04:58:48;96452.94;;;-3.85;100.00
57606;BME280;43430;48.204;11.556;2023-02-28T05:01:25;96457.03;;;-3.83;100.00
57606;BME280;43430;48.204;11.556;2023-02-28T05:03:52;96453.28;;;-3.78;100.00
57606;BME280;43430;48.204;11.556;2023-02-28T05:06:18;96462.41;;;-3.86;100.00
57606;BME280;43430;48.204;11.556;2023-02-28T05:08:45;96466.50;;;-3.83;100.00
57606;BME280;43430;48.204;11.556;2023-02-28T05:11:22;96465.22;;;-3.77;100.00
57606;BME280;43430;48.204;11.556;2023-02-28T05:13:49;96473.41;;;-3.72;100.00
57606;BME280;43430;48.204;11.556;2023-02-28T05:16:16;96466.00;;;-3.66;100.00
57606;BME280;43430;48.204;11.556;2023-02-28T05:18:41;96464.25;;;-3.65;100.00
57606;BME280;43430;48.204;11.556;2023-02-28T05:21:28;96467.31;;;-3.71;100.00
57606;BME280;43430;48.204;11.556;2023-02-28T05:23:54;96468.13;;;-3.71;100.00
57606;BME280;43430;48.204;11.556;2023-02-28T05:26:20;96470.34;;;-3.66;100.00
57606;BME280;43430;48.204;11.556;2023-02-28T05:28:46;96477.97;;;-3.76;100.00
57606;BME280;43430;48.204;11.556;2023-02-28T05:31:11;96475.63;;;-3.68;100.00
57606;BME280;43430;48.204;11.556;2023-02-28T05:33:37;96473.16;;;-3.69;100.00
57606;BME280;43430;48.204;11.556;2023-02-28T05:36:03;96465.19;;;-3.66;100.00
57606;BME280;43430;48.204;11.556;2023-02-28T05:38:28;96470.47;;;-3.68;100.00
57606;BME280;43430;48.204;11.556;2023-02-28T05:40:53;96462.59;;;-3.66;100.00
57606;BME280;43430;48.204;11.556;2023-02-28T05:43:19;96467.91;;;-3.68;100.00
57606;BME280;43430;48.204;11.556;2023-02-28T05:45:44;96467.75;;;-3.66;100.00
57606;BME280;43430;48.204;11.556;2023-02-28T05:48:09;96464.38;;;-3.67;100.00
57606;BME280;43430;48.204;11.556;2023-02-28T05:50:35;96461.31;;;-3.61;100.00
57606;BME280;43430;48.204;11.556;2023-02-28T05:53:01;96472.91;;;-3.66;100.00
57606;BME280;43430;48.204;11.556;2023-02-28T05:55:26;96468.13;;;-3.71;100.00
57606;BME280;43430;48.204;11.556;2023-02-28T05:57:52;96477.16;;;-3.76;100.00
57606;BME280;43430;48.204;11.556;2023-02-28T06:00:17;96476.91;;;-3.73;100.00
57606;BME280;43430;48.204;11.556;2023-02-28T06:02:43;96477.72;;;-3.73;100.00
57606;BME280;43430;48.204;11.556;2023-02-28T06:05:16;96477.34;;;-3.68;100.00
57606;BME280;43430;48.204;11.556;2023-02-28T06:07:42;96481.13;;;-3.61;100.00
57606;BME280;43430;48.204;11.556;2023-02-28T06:10:09;96480.22;;;-3.71;100.00
57606;BME280;43430;48.204;11.556;2023-02-28T06:12:34;96484.41;;;-3.70;100.00
57606;BME280;43430;48.204;11.556;2023-02-28T06:15:00;96485.09;;;-3.68;100.00
57606;BME280;43430;48.204;11.556;2023-02-28T06:17:25;96491.19;;;-3.69;100.00
57606;BME280;43430;48.204;11.556;2023-02-28T06:19:50;96498.13;;;-3.70;100.00
57606;BME280;43430;48.204;11.556;2023-02-28T06:22:16;96495.16;;;-3.65;100.00
57606;BME280;43430;48.204;11.556;2023-02-28T06:24:41;96499.50;;;-3.66;100.00
57606;BME280;43430;48.204;11.556;2023-02-28T06:27:06;96508.19;;;-3.67;100.00
57606;BME280;43430;48.204;11.556;2023-02-28T06:29:33;96507.81;;;-3.62;100.00
57606;BME280;43430;48.204;11.556;2023-02-28T06:31:59;96506.19;;;-3.63;100.00
57606;BME280;43430;48.204;11.556;2023-02-28T06:34:24;96500.56;;;-3.68;100.00
57606;BME280;43430;48.204;11.556;2023-02-28T06:36:51;96505.47;;;-3.65;100.00
57606;BME280;43430;48.204;11.556;2023-02-28T06:39:16;96499.03;;;-3.60;100.00
57606;BME280;43430;48.204;11.556;2023-02-28T06:41:42;96505.09;;;-3.49;100.00
57606;BME280;43430;48.204;11.556;2023-02-28T06:44:13;96506.53;;;-3.56;100.00
57606;BME280;43430;48.204;11.556;2023-02-28T06:46:42;96508.28;;;-3.57;100.00
57606;BME280;43430;48.204;11.556;2023-02-28T06:49:09;96501.94;;;-3.53;100.00
57606;BME280;43430;48.204;11.556;2023-02-28T06:51:36;96508.84;;;-3.53;100.00
57606;BME280;43430;48.204;11.556;2023-02-28T06:54:02;96512.34;;;-3.54;100.00
57606;BME280;43430;48.204;11.556;2023-02-28T06:56:27;96517.28;;;-3.51;100.00
57606;BME280;43430;48.204;11.556;2023-02-28T06:58:53;96525.00;;;-3.51;100.00
57606;BME280;43430;48.204;11.556;2023-02-28T07:01:19;96529.81;;;-3.47;100.00
57606;BME280;43430;48.204;11.556;2023-02-28T07:03:45;96534.25;;;-3.49;100.00
57606;BME280;43430;48.204;11.556;2023-02-28T07:06:11;96531.00;;;-3.51;100.00
57606;BME280;43430;48.204;11.556;2023-02-28T07:08:37;96528.16;;;-3.48;100.00
57606;BME280;43430;48.204;11.556;2023-02-28T07:11:03;96536.72;;;-3.47;100.00
57606;BME280;43430;48.204;11.556;2023-02-28T07:13:29;96536.00;;;-3.38;100.00
57606;BME280;43430;48.204;11.556;2023-02-28T07:16:04;96531.53;;;-3.36;100.00
57606;BME280;43430;48.204;11.556;2023-02-28T07:18:30;96535.06;;;-3.37;100.00
57606;BME280;43430;48.204;11.556;2023-02-28T07:20:56;96529.53;;;-3.32;100.00
57606;BME280;43430;48.204;11.556;2023-02-28T07:23:21;96526.72;;;-3.29;100.00
57606;BME280;43430;48.204;11.556;2023-02-28T07:25:47;96532.13;;;-3.32;100.00
57606;BME280;43430;48.204;11.556;2023-02-28T07:28:13;96528.59;;;-3.31;100.00
57606;BME280;43430;48.204;11.556;2023-02-28T07:30:39;96518.03;;;-3.28;100.00
57606;BME280;43430;48.204;11.556;2023-02-28T07:33:04;96515.91;;;-3.23;100.00
57606;BME280;43430;48.204;11.556;2023-02-28T07:35:30;96540.28;;;-3.27;100.00
57606;BME280;43430;48.204;11.556;2023-02-28T07:37:57;96537.22;;;-3.21;100.00
57606;BME280;43430;48.204;11.556;2023-02-28T07:40:23;96535.22;;;-3.18;100.00
57606;BME280;43430;48.204;11.556;2023-02-28T07:42:52;96542.34;;;-3.10;100.00
57606;BME280;43430;48.204;11.556;2023-02-28T07:45:17;96541.19;;;-3.06;100.00
57606;BME280;43430;48.204;11.556;2023-02-28T07:47:43;96537.75;;;-3.06;100.00
57606;BME280;43430;48.204;11.556;2023-02-28T07:50:11;96541.41;;;-3.09;100.00
57606;BME280;43430;48.204;11.556;2023-02-28T07:52:37;96529.97;;;-3.16;100.00
57606;BME280;43430;48.204;11.556;2023-02-28T07:55:04;96529.72;;;-3.13;100.00
57606;BME280;43430;48.204;11.556;2023-02-28T07:57:30;96525.56;;;-3.04;100.00
57606;BME280;43430;48.204;11.556;2023-02-28T07:59:55;96528.75;;;-3.12;100.00
57606;BME280;43430;48.204;11.556;2023-02-28T08:02:20;96531.59;;;-3.15;100.00
57606;BME280;43430;48.204;11.556;2023-02-28T08:04:46;96528.53;;;-3.09;100.00
57606;BME280;43430;48.204;11.556;2023-02-28T08:07:13;96533.88;;;-3.01;100.00
57606;BME280;43430;48.204;11.556;2023-02-28T08:09:39;96536.59;;;-3.02;100.00
57606;BME280;43430;48.204;11.556;2023-02-28T08:12:08;96534.56;;;-2.99;100.00
57606;BME280;43430;48.204;11.556;2023-02-28T08:14:34;96540.31;;;-2.95;100.00
57606;BME280;43430;48.204;11.556;2023-02-28T08:17:00;96535.22;;;-2.85;100.00
57606;BME280;43430;48.204;11.556;2023-02-28T08:19:25;96546.94;;;-2.81;100.00
57606;BME280;43430;48.204;11.556;2023-02-28T08:21:51;96541.78;;;-2.93;100.00
57606;BME280;43430;48.204;11.556;2023-02-28T08:24:16;96546.03;;;-2.92;100.00
57606;BME280;43430;48.204;11.556;2023-02-28T08:26:41;96551.19;;;-2.92;100.00
57606;BME280;43430;48.204;11.556;2023-02-28T08:29:07;96552.00;;;-2.91;100.00
57606;BME280;43430;48.204;11.556;2023-02-28T08:31:32;96551.38;;;-2.83;100.00
57606;BME280;43430;48.204;11.556;2023-02-28T08:33:58;96551.22;;;-2.71;100.00
57606;BME280;43430;48.204;11.556;2023-02-28T08:36:25;96555.41;;;-2.70;100.00
57606;BME280;43430;48.204;11.556;2023-02-28T08:38:53;96555.81;;;-2.74;100.00
57606;BME280;43430;48.204;11.556;2023-02-28T08:41:18;96569.94;;;-2.90;100.00
57606;BME280;43430;48.204;11.556;2023-02-28T08:43:44;96563.38;;;-2.94;100.00
57606;BME280;43430;48.204;11.556;2023-02-28T08:46:12;96562.19;;;-2.90;100.00
57606;BME280;43430;48.204;11.556;2023-02-28T08:48:39;96569.19;;;-2.80;100.00
57606;BME280;43430;48.204;11.556;2023-02-28T08:51:08;96571.03;;;-2.71;100.00
57606;BME280;43430;48.204;11.556;2023-02-28T08:53:35;96577.13;;;-2.72;100.00
57606;BME280;43430;48.204;11.556;2023-02-28T08:56:09;96567.34;;;-2.78;100.00
57606;BME280;43430;48.204;11.556;2023-02-28T08:58:35;96570.66;;;-2.67;100.00
57606;BME280;43430;48.204;11.556;2023-02-28T09:01:07;96570.84;;;-2.58;100.00
57606;BME280;43430;48.204;11.556;2023-02-28T09:03:33;96571.56;;;-2.56;100.00
57606;BME280;43430;48.204;11.556;2023-02-28T09:06:00;96565.06;;;-2.51;100.00
57606;BME280;43430;48.204;11.556;2023-02-28T09:08:28;96561.53;;;-2.50;100.00
57606;BME280;43430;48.204;11.556;2023-02-28T09:10:55;96564.75;;;-2.57;100.00
57606;BME280;43430;48.204;11.556;2023-02-28T09:13:23;96568.91;;;-2.45;100.00
57606;BME280;43430;48.204;11.556;2023-02-28T09:15:49;96566.38;;;-2.35;100.00
57606;BME280;43430;48.204;11.556;2023-02-28T09:18:15;96575.75;;;-2.34;100.00
57606;BME280;43430;48.204;11.556;2023-02-28T09:20:42;96579.28;;;-2.35;100.00
57606;BME280;43430;48.204;11.556;2023-02-28T09:23:09;96576.88;;;-2.27;100.00
57606;BME280;43430;48.204;11.556;2023-02-28T09:25:35;96578.78;;;-2.29;100.00
57606;BME280;43430;48.204;11.556;2023-02-28T09:28:01;96582.44;;;-2.32;100.00
57606;BME280;43430;48.204;11.556;2023-02-28T09:30:26;96578.41;;;-2.25;100.00
57606;BME280;43430;48.204;11.556;2023-02-28T09:32:52;96584.34;;;-2.13;100.00
57606;BME280;43430;48.204;11.556;2023-02-28T09:35:22;96580.59;;;-1.99;100.00
57606;BME280;43430;48.204;11.556;2023-02-28T09:37:51;96604.81;;;-1.91;100.00
57606;BME280;43430;48.204;11.556;2023-02-28T09:40:21;96601.03;;;-1.86;100.00
57606;BME280;43430;48.204;11.556;2023-02-28T09:42:49;96601.38;;;-1.70;100.00
57606;BME280;43430;48.204;11.556;2023-02-28T09:45:42;96599.91;;;-1.63;100.00
57606;BME280;43430;48.204;11.556;2023-02-28T09:48:21;96597.72;;;-1.68;100.00
57606;BME280;43430;48.204;11.556;2023-02-28T09:50:52;96601.03;;;-1.56;100.00
57606;BME280;43430;48.204;11.556;2023-02-28T09:53:38;96595.41;;;-1.30;100.00
57606;BME280;43430;48.204;11.556;2023-02-28T09:56:15;96599.91;;;-1.23;100.00
57606;BME280;43430;48.204;11.556;2023-02-28T09:58:54;96600.75;;;-1.12;100.00
57606;BME280;43430;48.204;11.556;2023-02-28T10:03:56;96601.34;;;-0.89;100.00
57606;BME280;43430;48.204;11.556;2023-02-28T10:06:26;96595.19;;;-0.88;100.00
57606;BME280;43430;48.204;11.556;2023-02-28T10:11:29;96601.28;;;-1.18;100.00
57606;BME280;43430;48.204;11.556;2023-02-28T10:14:14;96602.91;;;-1.17;100.00
57606;BME280;43430;48.204;11.556;2023-02-28T10:16:45;96598.28;;;-1.04;100.00
57606;BME280;43430;48.204;11.556;2023-02-28T10:22:03;96599.94;;;-1.03;100.00
57606;BME280;43430;48.204;11.556;2023-02-28T10:24:49;96599.94;;;-0.93;100.00
57606;BME280;43430;48.204;11.556;2023-02-28T10:27:17;96605.94;;;-1.03;100.00
57606;BME280;43430;48.204;11.556;2023-02-28T10:29:45;96608.66;;;-0.94;100.00
57606;BME280;43430;48.204;11.556;2023-02-28T10:32:15;96606.06;;;-0.94;100.00
57606;BME280;43430;48.204;11.556;2023-02-28T10:34:41;96602.41;;;-0.73;100.00
57606;BME280;43430;48.204;11.556;2023-02-28T10:37:07;96597.91;;;-0.61;100.00
57606;BME280;43430;48.204;11.556;2023-02-28T10:39:44;96596.41;;;-0.44;100.00
57606;BME280;43430;48.204;11.556;2023-02-28T10:42:29;96606.25;;;-0.47;100.00
57606;BME280;43430;48.204;11.556;2023-02-28T10:45:15;96604.34;;;-0.65;100.00
57606;BME280;43430;48.204;11.556;2023-02-28T10:58:58;96612.50;;;-0.60;100.00
57606;BME280;43430;48.204;11.556;2023-02-28T11:01:46;96614.97;;;-0.68;100.00
57606;BME280;43430;48.204;11.556;2023-02-28T11:07:03;96617.69;;;-0.60;100.00
57606;BME280;43430;48.204;11.556;2023-02-28T11:09:38;96616.75;;;-0.68;100.00
57606;BME280;43430;48.204;11.556;2023-02-28T11:12:06;96620.53;;;-0.63;100.00
57606;BME280;43430;48.204;11.556;2023-02-28T11:15:00;96617.28;;;-0.65;100.00
57606;BME280;43430;48.204;11.556;2023-02-28T11:17:29;96614.53;;;-0.73;100.00
57606;BME280;43430;48.204;11.556;2023-02-28T11:20:03;96621.06;;;-0.69;100.00
57606;BME280;43430;48.204;11.556;2023-02-28T11:22:32;96621.78;;;-0.57;100.00
57606;BME280;43430;48.204;11.556;2023-02-28T11:25:07;96618.75;;;-0.33;100.00
57606;BME280;43430;48.204;11.556;2023-02-28T11:30:02;96616.13;;;-0.14;100.00
57606;BME280;43430;48.204;11.556;2023-02-28T11:32:30;96606.19;;;-0.09;100.00
57606;BME280;43430;48.204;11.556;2023-02-28T11:37:36;96608.44;;;0.14;100.00
57606;BME280;43430;48.204;11.556;2023-02-28T11:40:08;96595.75;;;0.11;100.00
57606;BME280;43430;48.204;11.556;2023-02-28T11:42:44;96595.31;;;0.25;100.00
57606;BME280;43430;48.204;11.556;2023-02-28T11:48:05;96584.25;;;0.23;100.00
57606;BME280;43430;48.204;11.556;2023-02-28T11:53:58;96577.44;;;0.22;100.00
57606;BME280;43430;48.204;11.556;2023-02-28T11:56:39;96578.88;;;0.34;100.00
57606;BME280;43430;48.204;11.556;2023-02-28T12:02:25;96580.63;;;0.43;100.00
57606;BME280;43430;48.204;11.556;2023-02-28T12:05:17;96578.25;;;0.50;100.00
57606;BME280;43430;48.204;11.556;2023-02-28T12:08:06;96578.78;;;0.54;100.00
57606;BME280;43430;48.204;11.556;2023-02-28T12:10:42;96581.47;;;0.62;100.00
57606;BME280;43430;48.204;11.556;2023-02-28T12:13:21;96574.66;;;0.61;100.00
57606;BME280;43430;48.204;11.556;2023-02-28T12:26:53;96557.13;;;0.73;100.00
57606;BME280;43430;48.204;11.556;2023-02-28T12:32:10;96550.69;;;0.94;100.00
57606;BME280;43430;48.204;11.556;2023-02-28T12:34:43;96549.66;;;1.05;100.00
57606;BME280;43430;48.204;11.556;2023-02-28T12:37:17;96565.16;;;0.97;100.00
57606;BME280;43430;48.204;11.556;2023-02-28T12:39:51;96551.25;;;0.88;100.00
57606;BME280;43430;48.204;11.556;2023-02-28T12:42:27;96549.13;;;1.02;100.00
57606;BME280;43430;48.204;11.556;2023-02-28T12:45:00;96542.31;;;1.01;100.00
57606;BME280;43430;48.204;11.556;2023-02-28T12:47:26;96536.34;;;1.26;100.00
57606;BME280;43430;48.204;11.556;2023-02-28T12:50:00;96537.19;;;1.45;100.00
57606;BME280;43430;48.204;11.556;2023-02-28T12:55:50;96525.94;;;1.44;100.00
57606;BME280;43430;48.204;11.556;2023-02-28T13:01:05;96521.63;;;1.53;100.00
57606;BME280;43430;48.204;11.556;2023-02-28T13:09:15;96515.81;;;1.85;100.00
57606;BME280;43430;48.204;11.556;2023-02-28T13:11:43;96517.34;;;1.96;100.00
57606;BME280;43430;48.204;11.556;2023-02-28T13:14:20;96521.22;;;1.92;100.00
57606;BME280;43430;48.204;11.556;2023-02-28T13:19:22;96514.94;;;2.02;100.00
57606;BME280;43430;48.204;11.556;2023-02-28T13:21:50;96509.50;;;2.22;100.00
57606;BME280;43430;48.204;11.556;2023-02-28T13:29:31;96515.94;;;2.09;100.00
57606;BME280;43430;48.204;11.556;2023-02-28T13:34:39;96524.00;;;2.24;100.00
57606;BME280;43430;48.204;11.556;2023-02-28T13:47:29;96529.50;;;2.21;100.00
57606;BME280;43430;48.204;11.556;2023-02-28T13:53:53;96519.19;;;2.37;100.00
57606;BME280;43430;48.204;11.556;2023-02-28T14:01:48;96518.72;;;2.50;100.00
57606;BME280;43430;48.204;11.556;2023-02-28T14:04:49;96508.47;;;2.57;100.00
57606;BME280;43430;48.204;11.556;2023-02-28T14:07:18;96513.69;;;2.49;100.00
57606;BME280;43430;48.204;11.556;2023-02-28T14:10:06;96515.16;;;2.59;100.00
57606;BME280;43430;48.204;11.556;2023-02-28T14:15:40;96513.22;;;2.61;100.00
57606;BME280;43430;48.204;11.556;2023-02-28T14:18:23;96514.22;;;2.69;100.00
57606;BME280;43430;48.204;11.556;2023-02-28T14:20:53;96520.25;;;2.69;100.00
57606;BME280;43430;48.204;11.556;2023-02-28T14:23:35;96516.97;;;2.67;100.00
57606;BME280;43430;48.204;11.556;2023-02-28T14:33:58;96515.59;;;2.47;100.00
57606;BME280;43430;48.204;11.556;2023-02-28T14:36:32;96510.06;;;2.42;100.00
57606;BME280;43430;48.204;11.556;2023-02-28T14:39:03;96518.22;;;2.47;100.00
57606;BME280;43430;48.204;11.556;2023-02-28T14:41:33;96511.56;;;2.52;100.00
57606;BME280;43430;48.204;11.556;2023-02-28T14:44:24;96516.78;;;2.52;100.00
57606;BME280;43430;48.204;11.556;2023-02-28T14:46:52;96515.31;;;2.58;100.00
57606;BME280;43430;48.204;11.556;2023-02-28T14:49:21;96512.38;;;2.53;100.00
57606;BME280;43430;48.204;11.556;2023-02-28T14:51:50;96502.63;;;2.55;100.00
57606;BME280;43430;48.204;11.556;2023-02-28T14:54:26;96502.84;;;2.70;100.00
57606;BME280;43430;48.204;11.556;2023-02-28T14:56:51;96505.75;;;2.75;100.00
57606;BME280;43430;48.204;11.556;2023-02-28T14:59:32;96506.91;;;2.80;100.00
57606;BME280;43430;48.204;11.556;2023-02-28T15:02:17;96508.34;;;2.75;100.00
57606;BME280;43430;48.204;11.556;2023-02-28T15:05:02;96506.44;;;2.77;100.00
57606;BME280;43430;48.204;11.556;2023-02-28T15:07:35;96505.75;;;2.67;100.00
57606;BME280;43430;48.204;11.556;2023-02-28T15:12:40;96505.13;;;2.73;100.00
57606;BME280;43430;48.204;11.556;2023-02-28T15:15:06;96512.13;;;2.72;100.00
57606;BME280;43430;48.204;11.556;2023-02-28T15:17:39;96511.22;;;2.47;100.00
57606;BME280;43430;48.204;11.556;2023-02-28T15:20:11;96519.81;;;2.40;100.00
57606;BME280;43430;48.204;11.556;2023-02-28T15:22:38;96514.53;;;2.23;100.00